Time;durP1;ratioP1;P1;durP2;ratioP2;P2;SDS_P1;SDS_P2;PMS_P1;PMS_P2;Temp;Humidity;BMP_temperature;BMP_pressure;BME280_temperature;BME280_humidity;BME280_pressure;Samples;Min_cycle;Max_cycle;Signal;HPM_P1;HPM_P2
2024/02/22 00:00:53;;;;;;;51.10;23.30;;;;;;;-128.00;-1.00;-1.00;102685;1267;1004210;-80
2024/02/22 00:03:39;;;;;;;49.80;23.30;;;;;;;-128.00;-1.00;-1.00;102729;1263;1065027;-86
2024/02/22 00:06:06;;;;;;;45.20;22.10;;;;;;;-128.00;-1.00;-1.00;102684;1264;1005453;-88
2024/02/22 00:08:32;;;;;;;44.10;22.10;;;;;;;-128.00;-1.00;-1.00;102657;1264;1003942;-81
2024/02/22 00:10:59;;;;;;;32.70;18.50;;;;;;;-128.00;-1.00;-1.00;102701;1265;1003777;-88
2024/02/22 00:13:26;;;;;;;37.60;19.80;;;;;;;-128.00;-1.00;-1.00;102709;1265;1004001;-88
2024/02/22 00:15:52;;;;;;;39.50;17.80;;;;;;;-128.00;-1.00;-1.00;102700;1264;1004522;-88
2024/02/22 00:18:19;;;;;;;37.10;17.70;;;;;;;-128.00;-1.00;-1.00;102679;1260;1004475;-88
2024/02/22 00:20:45;;;;;;;32.50;16.10;;;;;;;-128.00;-1.00;-1.00;102678;1266;1005418;-88
2024/02/22 00:23:12;;;;;;;39.80;22.60;;;;;;;-128.00;-1.00;-1.00;102740;1263;1004052;-80
2024/02/22 00:25:38;;;;;;;55.30;27.90;;;;;;;-128.00;-1.00;-1.00;102079;1265;1004556;-86
2024/02/22 00:28:05;;;;;;;50.10;27.00;;;;;;;-128.00;-1.00;-1.00;102648;1266;1004483;-86
2024/02/22 00:30:32;;;;;;;50.00;24.30;;;;;;;-128.00;-1.00;-1.00;102658;1266;1005862;-86
2024/02/22 00:32:58;;;;;;;56.40;26.80;;;;;;;-128.00;-1.00;-1.00;102697;1260;1004377;-86
2024/02/22 00:35:24;;;;;;;58.00;24.50;;;;;;;-128.00;-1.00;-1.00;102730;1265;1003730;-80
2024/02/22 00:37:51;;;;;;;50.00;25.20;;;;;;;-128.00;-1.00;-1.00;102655;1262;1006308;-79
2024/02/22 00:40:18;;;;;;;45.90;25.60;;;;;;;-128.00;-1.00;-1.00;102116;1265;1005087;-88
2024/02/22 00:42:44;;;;;;;51.10;23.10;;;;;;;-128.00;-1.00;-1.00;102623;1261;1004628;-88
2024/02/22 00:45:11;;;;;;;52.10;22.40;;;;;;;-128.00;-1.00;-1.00;102568;1260;1004343;-88
2024/02/22 00:47:38;;;;;;;34.60;19.30;;;;;;;-128.00;-1.00;-1.00;102511;1266;1003727;-87
2024/02/22 00:50:05;;;;;;;34.90;17.30;;;;;;;-128.00;-1.00;-1.00;102643;1265;1004927;-81
2024/02/22 00:52:31;;;;;;;31.40;17.60;;;;;;;-128.00;-1.00;-1.00;102613;1266;1004356;-86
2024/02/22 00:54:58;;;;;;;29.60;16.20;;;;;;;-128.00;-1.00;-1.00;102620;1265;1005420;-85
2024/02/22 00:57:25;;;;;;;27.10;16.40;;;;;;;-128.00;-1.00;-1.00;102675;1260;1006211;-86
2024/02/22 00:59:51;;;;;;;28.90;15.00;;;;;;;-128.00;-1.00;-1.00;102706;1264;1004914;-80
2024/02/22 01:02:18;;;;;;;30.60;13.80;;;;;;;-128.00;-1.00;-1.00;102622;1265;1003708;-80
2024/02/22 01:04:45;;;;;;;28.10;14.10;;;;;;;-128.00;-1.00;-1.00;102662;1276;1006774;-80
2024/02/22 01:07:12;;;;;;;50.40;23.30;;;;;;;-128.00;-1.00;-1.00;102729;1260;1004406;-86
2024/02/22 01:09:38;;;;;;;34.30;15.30;;;;;;;-128.00;-1.00;-1.00;102488;1262;1005189;-86
2024/02/22 01:12:05;;;;;;;35.80;18.70;;;;;;;-128.00;-1.00;-1.00;102697;1260;1004194;-80
2024/02/22 01:14:31;;;;;;;31.20;17.40;;;;;;;-128.00;-1.00;-1.00;102669;1266;1004757;-80
2024/02/22 01:16:58;;;;;;;31.90;18.50;;;;;;;-128.00;-1.00;-1.00;102695;1261;1004321;-85
2024/02/22 01:19:24;;;;;;;35.40;21.00;;;;;;;-128.00;-1.00;-1.00;102705;1264;1003930;-79
2024/02/22 01:21:51;;;;;;;24.10;14.00;;;;;;;-128.00;-1.00;-1.00;102723;1260;1004603;-85
2024/02/22 01:24:19;;;;;;;22.40;11.30;;;;;;;-128.00;-1.00;-1.00;105099;1260;1004592;-85
2024/02/22 01:26:46;;;;;;;33.00;16.50;;;;;;;-128.00;-1.00;-1.00;102897;1261;1006449;-79
2024/02/22 01:29:12;;;;;;;36.00;19.30;;;;;;;-128.00;-1.00;-1.00;102718;1264;1004175;-85
2024/02/22 01:31:39;;;;;;;43.40;24.20;;;;;;;-128.00;-1.00;-1.00;102750;1265;1005179;-79
2024/02/22 01:34:05;;;;;;;40.70;24.30;;;;;;;-128.00;-1.00;-1.00;102664;1266;1004392;-79
2024/02/22 01:36:32;;;;;;;35.90;22.30;;;;;;;-128.00;-1.00;-1.00;102563;1266;1005082;-86
2024/02/22 01:39:00;;;;;;;48.40;30.20;;;;;;;-128.00;-1.00;-1.00;102615;1261;1005537;-79
2024/02/22 01:41:27;;;;;;;61.70;34.90;;;;;;;-128.00;-1.00;-1.00;102665;1265;1062546;-79
2024/02/22 01:43:53;;;;;;;49.10;29.90;;;;;;;-128.00;-1.00;-1.00;102749;1261;1004398;-81
2024/02/22 01:46:20;;;;;;;49.80;25.80;;;;;;;-128.00;-1.00;-1.00;102523;1266;1004092;-87
2024/02/22 01:48:46;;;;;;;57.00;28.40;;;;;;;-128.00;-1.00;-1.00;102700;1266;1006438;-82
2024/02/22 01:51:13;;;;;;;45.80;28.10;;;;;;;-128.00;-1.00;-1.00;102687;1261;1004554;-87
2024/02/22 01:53:40;;;;;;;58.40;30.40;;;;;;;-128.00;-1.00;-1.00;102703;1263;1005129;-81
2024/02/22 01:56:06;;;;;;;40.70;20.40;;;;;;;-128.00;-1.00;-1.00;102656;1260;1003888;-88
2024/02/22 01:58:34;;;;;;;50.20;25.00;;;;;;;-128.00;-1.00;-1.00;102721;1264;1005095;-82
2024/02/22 02:01:01;;;;;;;87.90;42.80;;;;;;;-128.00;-1.00;-1.00;102554;1260;1003850;-88
2024/02/22 02:03:28;;;;;;;59.10;32.00;;;;;;;-128.00;-1.00;-1.00;102690;1266;1004844;-82
2024/02/22 02:05:58;;;;;;;33.10;18.50;;;;;;;-128.00;-1.00;-1.00;102632;1261;1004711;-82
2024/02/22 02:08:24;;;;;;;26.00;12.80;;;;;;;-128.00;-1.00;-1.00;102624;1261;1057647;-86
2024/02/22 02:10:50;;;;;;;16.90;11.80;;;;;;;-128.00;-1.00;-1.00;102673;1261;1004226;-82
2024/02/22 02:13:17;;;;;;;20.70;11.40;;;;;;;-128.00;-1.00;-1.00;102700;1264;1004678;-85
2024/02/22 02:15:43;;;;;;;15.70;9.20;;;;;;;-128.00;-1.00;-1.00;102766;1260;1006705;-80
2024/02/22 02:18:10;;;;;;;19.00;9.90;;;;;;;-128.00;-1.00;-1.00;102693;1261;1004925;-80
2024/02/22 02:20:51;;;;;;;23.00;10.00;;;;;;;-128.00;-1.00;-1.00;102567;1260;1005099;-79
2024/02/22 02:23:17;;;;;;;23.10;10.80;;;;;;;-128.00;-1.00;-1.00;102619;1263;1059319;-79
2024/02/22 02:25:44;;;;;;;21.20;11.50;;;;;;;-128.00;-1.00;-1.00;102741;1262;1005224;-85
2024/02/22 02:28:11;;;;;;;38.20;20.20;;;;;;;-128.00;-1.00;-1.00;102691;1261;1004221;-80
2024/02/22 02:30:37;;;;;;;25.50;14.30;;;;;;;-128.00;-1.00;-1.00;102647;1266;1004772;-79
2024/02/22 02:33:04;;;;;;;33.90;20.10;;;;;;;-128.00;-1.00;-1.00;102673;1261;1004539;-86
2024/02/22 02:35:37;;;;;;;32.40;18.70;;;;;;;-128.00;-1.00;-1.00;102679;1260;1005298;-86
2024/02/22 02:38:12;;;;;;;21.70;12.40;;;;;;;-128.00;-1.00;-1.00;102616;1267;1047701;-79
2024/02/22 02:40:39;;;;;;;16.10;10.20;;;;;;;-128.00;-1.00;-1.00;102525;1263;1046757;-85
2024/02/22 02:43:06;;;;;;;19.60;9.80;;;;;;;-128.00;-1.00;-1.00;102676;1260;1005799;-85
2024/02/22 02:45:33;;;;;;;26.10;13.40;;;;;;;-128.00;-1.00;-1.00;102720;1261;1005155;-80
2024/02/22 02:47:59;;;;;;;19.30;10.70;;;;;;;-128.00;-1.00;-1.00;102645;1261;1005157;-86
2024/02/22 02:50:26;;;;;;;15.90;9.70;;;;;;;-128.00;-1.00;-1.00;102682;1264;1003541;-79
2024/02/22 02:52:53;;;;;;;23.10;11.10;;;;;;;-128.00;-1.00;-1.00;102651;1263;1004982;-79
2024/02/22 02:55:20;;;;;;;17.00;9.30;;;;;;;-128.00;-1.00;-1.00;102649;1261;1004385;-86
2024/02/22 02:57:47;;;;;;;18.30;9.20;;;;;;;-128.00;-1.00;-1.00;102740;1260;1004696;-85
2024/02/22 03:00:14;;;;;;;18.30;10.40;;;;;;;-128.00;-1.00;-1.00;102676;1264;1004693;-80
2024/02/22 03:02:40;;;;;;;17.50;10.50;;;;;;;-128.00;-1.00;-1.00;102689;1264;1004890;-86
2024/02/22 03:05:07;;;;;;;21.40;11.60;;;;;;;-128.00;-1.00;-1.00;102734;1260;1004248;-86
2024/02/22 03:07:35;;;;;;;25.10;12.90;;;;;;;-128.00;-1.00;-1.00;102723;1260;1006920;-86
2024/02/22 03:10:01;;;;;;;25.50;14.20;;;;;;;-128.00;-1.00;-1.00;102758;1263;1004212;-81
2024/02/22 03:12:28;;;;;;;28.70;13.80;;;;;;;-128.00;-1.00;-1.00;102527;1261;1005608;-85
2024/02/22 03:14:55;;;;;;;26.90;14.20;;;;;;;-128.00;-1.00;-1.00;102737;1264;1004971;-80
2024/02/22 03:17:23;;;;;;;31.20;13.80;;;;;;;-128.00;-1.00;-1.00;102591;1260;1005255;-86
2024/02/22 03:19:52;;;;;;;19.40;11.10;;;;;;;-128.00;-1.00;-1.00;105091;1260;1062591;-80
2024/02/22 03:22:19;;;;;;;23.90;12.30;;;;;;;-128.00;-1.00;-1.00;104936;1260;1004774;-86
2024/02/22 03:24:45;;;;;;;23.40;12.40;;;;;;;-128.00;-1.00;-1.00;104353;1260;1004221;-85
2024/02/22 03:27:12;;;;;;;21.00;10.20;;;;;;;-128.00;-1.00;-1.00;102686;1261;1005937;-86
2024/02/22 03:29:39;;;;;;;11.20;6.70;;;;;;;-128.00;-1.00;-1.00;102682;1260;1004140;-85
2024/02/22 03:32:05;;;;;;;20.50;8.60;;;;;;;-128.00;-1.00;-1.00;102737;1263;1005213;-79
2024/02/22 03:34:32;;;;;;;26.40;9.90;;;;;;;-128.00;-1.00;-1.00;102769;1260;1004056;-79
2024/02/22 03:36:59;;;;;;;8.50;5.10;;;;;;;-128.00;-1.00;-1.00;102637;1260;1004518;-85
2024/02/22 03:39:25;;;;;;;8.70;4.70;;;;;;;-128.00;-1.00;-1.00;102689;1261;1005234;-86
2024/02/22 03:41:52;;;;;;;13.30;4.40;;;;;;;-128.00;-1.00;-1.00;102704;1263;1004445;-85
2024/02/22 03:44:18;;;;;;;12.70;5.50;;;;;;;-128.00;-1.00;-1.00;102732;1264;1003861;-83
2024/02/22 03:46:49;;;;;;;10.10;7.00;;;;;;;-128.00;-1.00;-1.00;102685;1260;1005039;-79
2024/02/22 03:49:16;;;;;;;9.60;5.60;;;;;;;-128.00;-1.00;-1.00;102645;1260;1059442;-80
2024/02/22 03:51:43;;;;;;;8.00;5.00;;;;;;;-128.00;-1.00;-1.00;103041;1260;1004836;-80
2024/02/22 03:54:09;;;;;;;14.20;7.20;;;;;;;-128.00;-1.00;-1.00;102758;1262;1004781;-85
2024/02/22 03:56:36;;;;;;;12.90;5.50;;;;;;;-128.00;-1.00;-1.00;103113;1260;1004562;-80
2024/02/22 03:59:02;;;;;;;7.70;4.20;;;;;;;-128.00;-1.00;-1.00;103423;1260;1004303;-79
2024/02/22 04:01:30;;;;;;;9.40;5.40;;;;;;;-128.00;-1.00;-1.00;102568;1260;1003876;-79
2024/02/22 04:03:57;;;;;;;59.20;22.70;;;;;;;-128.00;-1.00;-1.00;102670;1260;1004587;-79
2024/02/22 04:06:24;;;;;;;21.90;9.70;;;;;;;-128.00;-1.00;-1.00;102603;1260;1005264;-79
2024/02/22 04:08:57;;;;;;;15.70;7.80;;;;;;;-128.00;-1.00;-1.00;102680;1261;1004333;-80
2024/02/22 04:11:23;;;;;;;10.20;4.00;;;;;;;-128.00;-1.00;-1.00;102662;1260;1060193;-80
2024/02/22 04:13:50;;;;;;;10.80;3.90;;;;;;;-128.00;-1.00;-1.00;102669;1260;1005148;-86
2024/02/22 04:16:16;;;;;;;6.70;3.50;;;;;;;-128.00;-1.00;-1.00;102684;1262;1004990;-80
2024/02/22 04:18:43;;;;;;;11.10;3.50;;;;;;;-128.00;-1.00;-1.00;102513;1268;1003869;-80
2024/02/22 04:21:10;;;;;;;6.30;3.00;;;;;;;-128.00;-1.00;-1.00;102724;1264;1004000;-80
2024/02/22 04:23:36;;;;;;;6.00;3.20;;;;;;;-128.00;-1.00;-1.00;105071;1261;1004301;-86
2024/02/22 04:26:03;;;;;;;6.00;3.00;;;;;;;-128.00;-1.00;-1.00;105026;1261;1005980;-81
2024/02/22 04:28:30;;;;;;;5.30;2.60;;;;;;;-128.00;-1.00;-1.00;105048;1262;1005389;-87
2024/02/22 04:30:56;;;;;;;6.00;3.30;;;;;;;-128.00;-1.00;-1.00;105042;1264;1005034;-81
2024/02/22 04:33:23;;;;;;;5.80;3.40;;;;;;;-128.00;-1.00;-1.00;103090;1262;1003851;-80
2024/02/22 04:35:49;;;;;;;6.40;3.60;;;;;;;-128.00;-1.00;-1.00;102570;1264;1004402;-79
2024/02/22 04:38:16;;;;;;;7.10;3.80;;;;;;;-128.00;-1.00;-1.00;102579;1262;1004262;-79
2024/02/22 04:40:43;;;;;;;13.30;6.40;;;;;;;-128.00;-1.00;-1.00;102559;1261;1004499;-85
2024/02/22 04:43:10;;;;;;;7.70;4.30;;;;;;;-128.00;-1.00;-1.00;102684;1265;1005420;-80
2024/02/22 04:45:37;;;;;;;7.30;3.90;;;;;;;-128.00;-1.00;-1.00;102649;1265;1005281;-86
2024/02/22 04:48:04;;;;;;;22.70;5.50;;;;;;;-128.00;-1.00;-1.00;104699;1261;1004479;-80
2024/02/22 04:50:30;;;;;;;12.80;5.90;;;;;;;-128.00;-1.00;-1.00;102863;1262;1004886;-86
2024/02/22 04:52:57;;;;;;;9.40;5.00;;;;;;;-128.00;-1.00;-1.00;102639;1260;1004326;-85
2024/02/22 04:55:24;;;;;;;27.50;13.30;;;;;;;-128.00;-1.00;-1.00;102703;1262;1004498;-80
2024/02/22 04:57:50;;;;;;;10.80;5.50;;;;;;;-128.00;-1.00;-1.00;102602;1262;1003673;-86
2024/02/22 05:00:17;;;;;;;9.60;5.30;;;;;;;-128.00;-1.00;-1.00;102592;1262;1005358;-85
2024/02/22 05:02:43;;;;;;;13.50;5.60;;;;;;;-128.00;-1.00;-1.00;102628;1263;1004339;-79
2024/02/22 05:05:10;;;;;;;16.60;6.10;;;;;;;-128.00;-1.00;-1.00;102591;1261;1004088;-85
2024/02/22 05:07:37;;;;;;;9.40;4.50;;;;;;;-128.00;-1.00;-1.00;102662;1264;1004439;-80
2024/02/22 05:10:06;;;;;;;15.30;6.70;;;;;;;-128.00;-1.00;-1.00;102621;1267;1004471;-80
2024/02/22 05:12:33;;;;;;;16.50;6.80;;;;;;;-128.00;-1.00;-1.00;102649;1261;1062379;-85
2024/02/22 05:14:59;;;;;;;15.20;6.50;;;;;;;-128.00;-1.00;-1.00;102668;1262;1005048;-85
2024/02/22 05:17:26;;;;;;;15.00;6.70;;;;;;;-128.00;-1.00;-1.00;102602;1262;1004363;-80
2024/02/22 05:19:52;;;;;;;17.20;7.10;;;;;;;-128.00;-1.00;-1.00;102658;1267;1004739;-80
2024/02/22 05:22:19;;;;;;;14.90;7.90;;;;;;;-128.00;-1.00;-1.00;102446;1261;1004837;-85
2024/02/22 05:24:46;;;;;;;12.00;5.30;;;;;;;-128.00;-1.00;-1.00;102599;1263;1004373;-85
2024/02/22 05:27:12;;;;;;;17.50;6.70;;;;;;;-128.00;-1.00;-1.00;102650;1262;1004812;-80
2024/02/22 05:29:39;;;;;;;15.50;6.60;;;;;;;-128.00;-1.00;-1.00;102704;1262;1004364;-83
2024/02/22 05:32:06;;;;;;;12.00;5.60;;;;;;;-128.00;-1.00;-1.00;102439;1268;1003579;-85
2024/02/22 05:34:32;;;;;;;19.90;7.60;;;;;;;-128.00;-1.00;-1.00;102636;1261;1004535;-85
2024/02/22 05:36:59;;;;;;;17.00;6.80;;;;;;;-128.00;-1.00;-1.00;103643;1261;1005332;-86
2024/02/22 05:39:25;;;;;;;19.90;6.20;;;;;;;-128.00;-1.00;-1.00;102743;1262;1004961;-85
2024/02/22 05:41:52;;;;;;;13.70;5.90;;;;;;;-128.00;-1.00;-1.00;102641;1263;1004232;-85
2024/02/22 05:44:18;;;;;;;13.20;6.90;;;;;;;-128.00;-1.00;-1.00;102662;1262;1004053;-79
2024/02/22 05:46:45;;;;;;;10.80;6.00;;;;;;;-128.00;-1.00;-1.00;104051;1262;1003490;-85
2024/02/22 05:49:11;;;;;;;12.60;6.40;;;;;;;-128.00;-1.00;-1.00;104950;1262;1003396;-80
2024/02/22 05:51:38;;;;;;;15.70;6.20;;;;;;;-128.00;-1.00;-1.00;103236;1263;1004133;-80
2024/02/22 05:54:04;;;;;;;14.40;6.00;;;;;;;-128.00;-1.00;-1.00;102083;1260;1004507;-79
2024/02/22 05:56:32;;;;;;;14.20;5.60;;;;;;;-128.00;-1.00;-1.00;102065;1263;1005302;-80
2024/02/22 05:58:58;;;;;;;13.10;5.50;;;;;;;-128.00;-1.00;-1.00;102051;1263;1003936;-79
2024/02/22 06:01:25;;;;;;;16.70;4.40;;;;;;;-128.00;-1.00;-1.00;102650;1262;1004684;-86
2024/02/22 06:03:51;;;;;;;19.70;10.50;;;;;;;-128.00;-1.00;-1.00;102698;1264;1005864;-84
2024/02/22 06:06:17;;;;;;;13.80;7.80;;;;;;;-128.00;-1.00;-1.00;102832;1261;1004422;-86
2024/02/22 06:08:44;;;;;;;22.10;9.00;;;;;;;-128.00;-1.00;-1.00;102858;1261;1003928;-85
2024/02/22 06:11:15;;;;;;;39.50;16.50;;;;;;;-128.00;-1.00;-1.00;102720;1261;1004516;-79
2024/02/22 06:13:41;;;;;;;37.20;14.40;;;;;;;-128.00;-1.00;-1.00;105045;1260;1057802;-85
2024/02/22 06:16:08;;;;;;;46.50;19.70;;;;;;;-128.00;-1.00;-1.00;105085;1260;1003954;-86
2024/02/22 06:18:35;;;;;;;20.00;11.20;;;;;;;-128.00;-1.00;-1.00;105042;1260;1003353;-86
2024/02/22 06:21:02;;;;;;;13.50;8.30;;;;;;;-128.00;-1.00;-1.00;103341;1260;1004911;-84
2024/02/22 06:23:28;;;;;;;9.30;5.50;;;;;;;-128.00;-1.00;-1.00;102908;1264;1004320;-86
2024/02/22 06:25:57;;;;;;;11.10;4.80;;;;;;;-128.00;-1.00;-1.00;102688;1262;1005443;-79
2024/02/22 06:28:23;;;;;;;7.50;4.40;;;;;;;-128.00;-1.00;-1.00;102656;1260;1059774;-79
2024/02/22 06:30:50;;;;;;;7.20;3.90;;;;;;;-128.00;-1.00;-1.00;102128;1261;1005059;-79
2024/02/22 06:33:16;;;;;;;20.80;6.00;;;;;;;-128.00;-1.00;-1.00;102737;1260;1004587;-85
2024/02/22 06:35:43;;;;;;;8.90;5.10;;;;;;;-128.00;-1.00;-1.00;102778;1262;1005245;-85
2024/02/22 06:38:09;;;;;;;13.10;4.20;;;;;;;-128.00;-1.00;-1.00;102611;1260;1005905;-79
2024/02/22 06:40:46;;;;;;;10.10;4.60;;;;;;;-128.00;-1.00;-1.00;102732;1264;1003968;-79
2024/02/22 06:43:13;;;;;;;10.20;4.70;;;;;;;-128.00;-1.00;-1.00;102627;1260;1045663;-85
2024/02/22 06:45:40;;;;;;;9.50;5.50;;;;;;;-128.00;-1.00;-1.00;102683;1263;1004522;-79
2024/02/22 06:48:07;;;;;;;6.80;3.90;;;;;;;-128.00;-1.00;-1.00;102642;1261;1004813;-79
2024/02/22 06:50:34;;;;;;;9.70;5.50;;;;;;;-128.00;-1.00;-1.00;102081;1261;1004751;-79
2024/02/22 06:53:01;;;;;;;12.40;8.00;;;;;;;-128.00;-1.00;-1.00;102102;1261;1003662;-85
2024/02/22 06:55:27;;;;;;;14.30;7.20;;;;;;;-128.00;-1.00;-1.00;102633;1261;1004028;-79
2024/02/22 06:57:54;;;;;;;16.70;7.10;;;;;;;-128.00;-1.00;-1.00;102693;1261;1005101;-85
2024/02/22 07:00:20;;;;;;;10.80;5.90;;;;;;;-128.00;-1.00;-1.00;102857;1262;1004628;-80
2024/02/22 07:02:47;;;;;;;13.30;5.90;;;;;;;-128.00;-1.00;-1.00;102754;1267;1004637;-80
2024/02/22 07:05:14;;;;;;;6.10;3.50;;;;;;;-128.00;-1.00;-1.00;102747;1262;1004697;-80
2024/02/22 07:07:41;;;;;;;15.70;3.50;;;;;;;-128.00;-1.00;-1.00;102847;1262;1003930;-80
2024/02/22 07:10:12;;;;;;;8.00;3.60;;;;;;;-128.00;-1.00;-1.00;102737;1262;1004128;-80
2024/02/22 07:12:38;;;;;;;16.70;6.20;;;;;;;-128.00;-1.00;-1.00;102845;1262;1064612;-80
2024/02/22 07:15:05;;;;;;;10.70;4.40;;;;;;;-128.00;-1.00;-1.00;102972;1260;1004996;-80
2024/02/22 07:17:32;;;;;;;14.00;7.20;;;;;;;-128.00;-1.00;-1.00;102843;1265;1004734;-86
2024/02/22 07:19:59;;;;;;;53.10;32.90;;;;;;;-128.00;-1.00;-1.00;102943;1262;1004918;-80
2024/02/22 07:22:26;;;;;;;229.50;112.00;;;;;;;-128.00;-1.00;-1.00;102713;1264;1004413;-86
2024/02/22 07:24:52;;;;;;;26.10;14.70;;;;;;;-128.00;-1.00;-1.00;102731;1264;1004746;-80
2024/02/22 07:27:19;;;;;;;35.40;16.80;;;;;;;-128.00;-1.00;-1.00;102767;1262;1004815;-80
2024/02/22 07:29:45;;;;;;;40.10;22.30;;;;;;;-128.00;-1.00;-1.00;102752;1262;1005096;-80
2024/02/22 07:32:12;;;;;;;13.20;4.70;;;;;;;-128.00;-1.00;-1.00;103972;1260;1004208;-86
2024/02/22 07:34:39;;;;;;;28.00;17.50;;;;;;;-128.00;-1.00;-1.00;103058;1260;1005576;-79
2024/02/22 07:37:06;;;;;;;19.70;7.00;;;;;;;-128.00;-1.00;-1.00;103038;1262;1004580;-86
2024/02/22 07:39:33;;;;;;;8.30;4.30;;;;;;;-128.00;-1.00;-1.00;103041;1260;1006275;-79
2024/02/22 07:41:59;;;;;;;16.70;8.70;;;;;;;-128.00;-1.00;-1.00;102860;1262;1006094;-83
2024/02/22 07:44:27;;;;;;;10.40;4.30;;;;;;;-128.00;-1.00;-1.00;102911;1260;1004285;-80
2024/02/22 07:46:54;;;;;;;10.70;4.80;;;;;;;-128.00;-1.00;-1.00;102248;1261;1006034;-84
2024/02/22 07:49:21;;;;;;;7.90;4.10;;;;;;;-128.00;-1.00;-1.00;102869;1260;1005292;-80
2024/02/22 07:51:47;;;;;;;7.00;4.10;;;;;;;-128.00;-1.00;-1.00;102838;1260;1004745;-84
2024/02/22 07:54:14;;;;;;;8.70;4.10;;;;;;;-128.00;-1.00;-1.00;102765;1260;1004677;-79
2024/02/22 07:56:40;;;;;;;9.70;4.10;;;;;;;-128.00;-1.00;-1.00;102992;1260;1004254;-86
2024/02/22 07:59:08;;;;;;;16.10;8.10;;;;;;;-128.00;-1.00;-1.00;103510;1262;1003868;-85
2024/02/22 08:01:36;;;;;;;11.70;5.00;;;;;;;-128.00;-1.00;-1.00;103403;1260;1004330;-86
2024/02/22 08:04:03;;;;;;;12.10;4.80;;;;;;;-128.00;-1.00;-1.00;103584;1260;1003711;-86
2024/02/22 08:06:29;;;;;;;9.90;3.40;;;;;;;-128.00;-1.00;-1.00;103714;1261;1004996;-80
2024/02/22 08:08:56;;;;;;;5.40;3.40;;;;;;;-128.00;-1.00;-1.00;104845;1261;1004121;-80
2024/02/22 08:11:24;;;;;;;9.10;3.00;;;;;;;-128.00;-1.00;-1.00;105032;1260;1004938;-86
2024/02/22 08:13:51;;;;;;;4.60;3.00;;;;;;;-128.00;-1.00;-1.00;105034;1261;1004998;-86
2024/02/22 08:16:17;;;;;;;5.80;3.60;;;;;;;-128.00;-1.00;-1.00;105037;1262;1003444;-86
2024/02/22 08:18:44;;;;;;;6.00;3.60;;;;;;;-128.00;-1.00;-1.00;104925;1261;1004406;-80
2024/02/22 08:21:10;;;;;;;5.30;2.70;;;;;;;-128.00;-1.00;-1.00;104919;1260;1003804;-80
2024/02/22 08:23:37;;;;;;;12.20;6.00;;;;;;;-128.00;-1.00;-1.00;104973;1264;1004538;-81
2024/02/22 08:26:04;;;;;;;7.90;3.20;;;;;;;-128.00;-1.00;-1.00;104923;1261;1004160;-86
2024/02/22 08:28:32;;;;;;;9.70;4.90;;;;;;;-128.00;-1.00;-1.00;103241;1263;1004883;-80
2024/02/22 08:30:59;;;;;;;9.10;5.30;;;;;;;-128.00;-1.00;-1.00;102801;1262;1005323;-85
2024/02/22 08:33:25;;;;;;;9.00;6.00;;;;;;;-128.00;-1.00;-1.00;102871;1260;1004827;-85
2024/02/22 08:35:56;;;;;;;7.50;4.30;;;;;;;-128.00;-1.00;-1.00;103012;1260;1004908;-85
2024/02/22 08:38:26;;;;;;;7.20;3.30;;;;;;;-128.00;-1.00;-1.00;103204;1260;1061640;-85
2024/02/22 08:40:52;;;;;;;4.90;2.30;;;;;;;-128.00;-1.00;-1.00;103032;1263;1059933;-80
2024/02/22 08:43:19;;;;;;;6.20;3.70;;;;;;;-128.00;-1.00;-1.00;103086;1262;1004202;-80
2024/02/22 08:45:47;;;;;;;6.10;3.90;;;;;;;-128.00;-1.00;-1.00;102924;1266;1004695;-85
2024/02/22 08:48:14;;;;;;;9.30;5.50;;;;;;;-128.00;-1.00;-1.00;102974;1263;1005545;-80
2024/02/22 08:50:42;;;;;;;11.10;6.20;;;;;;;-128.00;-1.00;-1.00;102815;1261;1003553;-79
2024/02/22 08:53:08;;;;;;;14.20;7.60;;;;;;;-128.00;-1.00;-1.00;104095;1262;1004410;-85
2024/02/22 08:55:35;;;;;;;21.90;12.40;;;;;;;-128.00;-1.00;-1.00;102895;1261;1003932;-85
2024/02/22 08:58:02;;;;;;;8.40;3.90;;;;;;;-128.00;-1.00;-1.00;102887;1261;1004871;-85
2024/02/22 09:00:28;;;;;;;9.90;4.00;;;;;;;-128.00;-1.00;-1.00;102877;1261;1004428;-85
2024/02/22 09:02:55;;;;;;;8.90;4.30;;;;;;;-128.00;-1.00;-1.00;102771;1261;1004776;-80
2024/02/22 09:05:22;;;;;;;7.80;3.00;;;;;;;-128.00;-1.00;-1.00;102803;1266;1004955;-79
2024/02/22 09:07:49;;;;;;;6.70;3.80;;;;;;;-128.00;-1.00;-1.00;102779;1260;1005045;-80
2024/02/22 09:10:16;;;;;;;8.60;3.30;;;;;;;-128.00;-1.00;-1.00;102884;1262;1003489;-80
2024/02/22 09:12:43;;;;;;;9.10;5.00;;;;;;;-128.00;-1.00;-1.00;102334;1262;1004641;-85
2024/02/22 09:15:14;;;;;;;9.60;4.90;;;;;;;-128.00;-1.00;-1.00;103033;1262;1004328;-79
2024/02/22 09:17:40;;;;;;;5.90;3.40;;;;;;;-128.00;-1.00;-1.00;102840;1267;1058820;-85
2024/02/22 09:20:07;;;;;;;10.10;4.40;;;;;;;-128.00;-1.00;-1.00;102845;1262;1004440;-85
2024/02/22 09:22:34;;;;;;;7.30;3.50;;;;;;;-128.00;-1.00;-1.00;104610;1260;1003877;-80
2024/02/22 09:25:06;;;;;;;8.70;4.20;;;;;;;-128.00;-1.00;-1.00;104702;1261;1004223;-80
2024/02/22 09:27:32;;;;;;;5.00;3.20;;;;;;;-128.00;-1.00;-1.00;102781;1262;1063975;-80
2024/02/22 09:30:01;;;;;;;5.40;2.70;;;;;;;-128.00;-1.00;-1.00;102796;1267;1003847;-80
2024/02/22 09:32:28;;;;;;;3.80;2.40;;;;;;;-128.00;-1.00;-1.00;102900;1265;1060383;-79
2024/02/22 09:34:55;;;;;;;5.40;2.80;;;;;;;-128.00;-1.00;-1.00;102740;1262;1005411;-79
2024/02/22 09:37:22;;;;;;;11.70;4.40;;;;;;;-128.00;-1.00;-1.00;102801;1262;1004465;-79
2024/02/22 09:39:50;;;;;;;9.30;5.40;;;;;;;-128.00;-1.00;-1.00;102823;1262;1004253;-79
2024/02/22 09:42:18;;;;;;;9.60;5.20;;;;;;;-128.00;-1.00;-1.00;102798;1261;1059765;-85
2024/02/22 09:44:46;;;;;;;11.50;5.20;;;;;;;-128.00;-1.00;-1.00;102684;1262;1004990;-79
2024/02/22 09:47:15;;;;;;;8.10;4.80;;;;;;;-128.00;-1.00;-1.00;102642;1263;1005213;-84
2024/02/22 09:49:42;;;;;;;26.80;11.70;;;;;;;-128.00;-1.00;-1.00;102712;1262;1047054;-81
2024/02/22 09:52:11;;;;;;;13.10;5.10;;;;;;;-128.00;-1.00;-1.00;102688;1261;1004757;-85
2024/02/22 09:54:38;;;;;;;11.70;5.90;;;;;;;-128.00;-1.00;-1.00;102757;1261;1058004;-79
2024/02/22 09:57:04;;;;;;;13.20;7.30;;;;;;;-128.00;-1.00;-1.00;102818;1264;1005085;-85
2024/02/22 09:59:31;;;;;;;6.90;4.10;;;;;;;-128.00;-1.00;-1.00;102767;1264;1005548;-85
2024/02/22 10:01:57;;;;;;;13.20;6.70;;;;;;;-128.00;-1.00;-1.00;102851;1261;1005704;-80
2024/02/22 10:04:24;;;;;;;5.50;3.70;;;;;;;-128.00;-1.00;-1.00;102835;1261;1005068;-80
2024/02/22 10:06:59;;;;;;;5.50;3.50;;;;;;;-128.00;-1.00;-1.00;102726;1262;1004075;-80
2024/02/22 10:09:25;;;;;;;18.10;8.90;;;;;;;-128.00;-1.00;-1.00;102583;1262;1059451;-79
2024/02/22 10:11:52;;;;;;;15.10;8.50;;;;;;;-128.00;-1.00;-1.00;102825;1262;1004745;-85
2024/02/22 10:14:18;;;;;;;22.60;8.20;;;;;;;-128.00;-1.00;-1.00;102885;1261;1004159;-79
2024/02/22 10:16:45;;;;;;;17.10;8.80;;;;;;;-128.00;-1.00;-1.00;102667;1261;1005210;-80
2024/02/22 10:19:12;;;;;;;10.50;5.40;;;;;;;-128.00;-1.00;-1.00;102727;1262;1005374;-85
2024/02/22 10:21:39;;;;;;;9.40;4.20;;;;;;;-128.00;-1.00;-1.00;105045;1261;1004531;-86
2024/02/22 10:24:06;;;;;;;9.90;5.40;;;;;;;-128.00;-1.00;-1.00;104960;1261;1003464;-86
2024/02/22 10:26:32;;;;;;;8.80;5.20;;;;;;;-128.00;-1.00;-1.00;105079;1261;1005472;-80
2024/02/22 10:29:06;;;;;;;10.20;4.50;;;;;;;-128.00;-1.00;-1.00;105101;1260;1004322;-80
2024/02/22 10:31:48;;;;;;;7.30;4.20;;;;;;;-128.00;-1.00;-1.00;104931;1260;1057654;-86
2024/02/22 10:34:15;;;;;;;6.00;2.90;;;;;;;-128.00;-1.00;-1.00;104960;1260;1059359;-86
2024/02/22 10:36:44;;;;;;;7.90;3.00;;;;;;;-128.00;-1.00;-1.00;104987;1260;1004270;-86
2024/02/22 10:39:12;;;;;;;7.90;4.10;;;;;;;-128.00;-1.00;-1.00;103100;1263;1047477;-84
2024/02/22 10:41:38;;;;;;;7.10;4.20;;;;;;;-128.00;-1.00;-1.00;103438;1263;1004196;-80
2024/02/22 10:44:05;;;;;;;11.20;4.20;;;;;;;-128.00;-1.00;-1.00;102987;1262;1004316;-80
2024/02/22 10:46:36;;;;;;;7.70;4.90;;;;;;;-128.00;-1.00;-1.00;102626;1262;1004558;-85
2024/02/22 10:49:11;;;;;;;9.60;4.90;;;;;;;-128.00;-1.00;-1.00;102612;1264;1045780;-80
2024/02/22 10:51:38;;;;;;;14.70;6.40;;;;;;;-128.00;-1.00;-1.00;102520;1262;1050158;-80
2024/02/22 10:54:11;;;;;;;6.50;4.10;;;;;;;-128.00;-1.00;-1.00;102450;1268;1004521;-85
2024/02/22 10:56:39;;;;;;;5.50;3.70;;;;;;;-128.00;-1.00;-1.00;102556;1261;1059259;-83
2024/02/22 10:59:07;;;;;;;5.90;3.50;;;;;;;-128.00;-1.00;-1.00;102481;1262;1059157;-80
2024/02/22 11:01:34;;;;;;;5.50;3.40;;;;;;;-128.00;-1.00;-1.00;102373;1262;1004107;-80
2024/02/22 11:04:01;;;;;;;5.50;3.40;;;;;;;-128.00;-1.00;-1.00;102075;1265;1004905;-82
2024/02/22 11:06:28;;;;;;;6.60;3.30;;;;;;;-128.00;-1.00;-1.00;102446;1261;1004267;-81
2024/02/22 11:08:59;;;;;;;5.20;3.20;;;;;;;-128.00;-1.00;-1.00;102539;1262;1003793;-81